createdAt,value
2018-02-05T00:00:59.317Z,23.47
2018-02-05T00:03:28.137Z,23.53
2018-02-05T00:05:58.143Z,24.00
2018-02-05T00:08:28.240Z,23.13
2018-02-05T00:10:57.286Z,26.20
2018-02-05T00:13:27.510Z,25.67
2018-02-05T00:15:56.647Z,25.13
2018-02-05T00:18:28.708Z,25.17
2018-02-05T00:20:59.388Z,22.27
2018-02-05T00:23:29.980Z,20.83
2018-02-05T00:25:59.880Z,22.33
2018-02-05T00:28:29.302Z,23.27
2018-02-05T00:31:00.108Z,25.53
2018-02-05T00:33:32.427Z,29.30
2018-02-05T00:36:02.255Z,24.43
2018-02-05T00:38:30.870Z,25.63
2018-02-05T00:41:00.662Z,23.40
2018-02-05T00:43:29.915Z,23.27
2018-02-05T00:46:00.732Z,24.07
2018-02-05T00:48:30.672Z,23.67
2018-02-05T00:51:00.966Z,23.83
2018-02-05T00:53:30.593Z,26.43
2018-02-05T00:56:00.937Z,24.67
2018-02-05T00:58:31.829Z,25.20
2018-02-05T01:01:00.805Z,25.60
2018-02-05T01:03:31.200Z,23.07
2018-02-05T01:06:01.181Z,22.53
2018-02-05T01:08:31.129Z,24.43
2018-02-05T01:11:01.300Z,23.40
2018-02-05T01:13:30.315Z,23.63
2018-02-05T01:16:00.946Z,23.03
2018-02-05T01:18:32.761Z,23.23
2018-02-05T01:21:03.701Z,22.83
2018-02-05T01:23:37.110Z,24.47
2018-02-05T01:26:05.437Z,23.47
2018-02-05T01:28:34.637Z,26.00
2018-02-05T01:31:04.990Z,23.20
2018-02-05T01:33:34.126Z,22.43
2018-02-05T01:36:05.702Z,22.70
2018-02-05T01:38:34.739Z,24.77
2018-02-05T01:41:05.350Z,23.03
2018-02-05T01:43:35.525Z,24.43
2018-02-05T01:46:05.073Z,29.03
2018-02-05T01:48:35.192Z,29.17
2018-02-05T01:51:07.146Z,28.37
2018-02-05T01:53:36.048Z,28.17
2018-02-05T01:56:06.804Z,29.33
2018-02-05T01:58:36.986Z,25.73
2018-02-05T02:01:07.605Z,27.50
2018-02-05T02:03:35.944Z,24.77
2018-02-05T02:06:04.339Z,26.87
2018-02-05T02:08:35.496Z,27.73
2018-02-05T02:11:04.774Z,25.57
2018-02-05T02:13:33.232Z,23.67
2018-02-05T02:16:02.333Z,25.93
2018-02-05T02:18:34.565Z,25.30
2018-02-05T02:21:04.542Z,25.00
2018-02-05T02:23:34.570Z,22.80
2018-02-05T02:26:03.382Z,22.80
2018-02-05T02:28:32.887Z,22.60
2018-02-05T02:31:04.117Z,22.67
2018-02-05T02:33:33.866Z,23.70
2018-02-05T02:36:05.925Z,25.97
2018-02-05T02:38:36.034Z,27.47
2018-02-05T02:41:06.562Z,27.37
2018-02-05T02:43:36.517Z,25.17
2018-02-05T02:46:07.477Z,25.50
2018-02-05T02:48:37.922Z,25.50
2018-02-05T02:51:07.659Z,30.27
2018-02-05T02:53:36.628Z,27.53
2018-02-05T02:56:11.186Z,27.33
2018-02-05T02:58:40.617Z,29.47
2018-02-05T03:01:10.167Z,26.43
2018-02-05T03:03:41.180Z,27.10
2018-02-05T03:06:09.282Z,25.33
2018-02-05T03:08:38.961Z,26.83
2018-02-05T03:11:07.979Z,26.50
2018-02-05T03:13:39.896Z,26.60
2018-02-05T03:16:08.312Z,24.53
2018-02-05T03:18:39.862Z,25.43
2018-02-05T03:21:11.193Z,24.07
2018-02-05T03:23:40.649Z,24.93
2018-02-05T03:26:10.217Z,26.10
2018-02-05T03:28:41.818Z,26.20
2018-02-05T03:31:10.674Z,26.17
2018-02-05T03:33:41.430Z,27.00
2018-02-05T03:36:09.488Z,27.10
2018-02-05T03:38:41.094Z,26.57
2018-02-05T03:41:12.985Z,27.47
2018-02-05T03:43:41.708Z,24.30
2018-02-05T03:46:11.822Z,25.50
2018-02-05T03:48:43.044Z,23.60
2018-02-05T03:51:12.801Z,22.70
2018-02-05T03:53:40.865Z,23.20
2018-02-05T03:56:11.167Z,23.70
2018-02-05T03:58:41.139Z,25.03
2018-02-05T04:01:11.800Z,24.53
2018-02-05T04:03:41.181Z,25.03
2018-02-05T04:06:10.789Z,27.50
2018-02-05T04:08:41.147Z,24.97
2018-02-05T04:11:09.335Z,25.60
2018-02-05T04:13:37.395Z,27.10
2018-02-05T04:16:05.831Z,25.23
2018-02-05T04:18:35.302Z,25.20
2018-02-05T04:21:06.385Z,26.57
2018-02-05T04:23:37.301Z,27.70
2018-02-05T04:26:07.618Z,26.97
2018-02-05T04:28:37.901Z,26.67
2018-02-05T04:31:08.845Z,24.93
2018-02-05T04:33:38.375Z,27.07
2018-02-05T04:36:08.543Z,27.97
2018-02-05T04:38:40.684Z,27.50
2018-02-05T04:41:09.243Z,28.43
2018-02-05T04:43:42.400Z,26.27
2018-02-05T04:46:10.444Z,26.30
2018-02-05T04:48:41.764Z,27.73
2018-02-05T04:51:12.723Z,26.73
2018-02-05T04:53:41.582Z,24.93
2018-02-05T04:56:11.653Z,29.47
2018-02-05T04:58:40.491Z,29.27
2018-02-05T05:01:10.096Z,30.00
2018-02-05T05:03:38.246Z,27.30
2018-02-05T05:06:08.080Z,31.40
2018-02-05T05:08:40.437Z,30.80
2018-02-05T05:11:10.844Z,35.30
2018-02-05T05:13:41.145Z,27.03
2018-02-05T05:16:11.642Z,29.60
2018-02-05T05:18:40.874Z,29.63
2018-02-05T05:21:08.933Z,28.00
2018-02-05T05:23:41.865Z,27.87
2018-02-05T05:26:11.733Z,26.87
2018-02-05T05:28:42.299Z,25.17
2018-02-05T05:31:10.398Z,25.60
2018-02-05T05:33:39.850Z,25.17
2018-02-05T05:36:10.833Z,25.50
2018-02-05T05:38:39.041Z,31.37
2018-02-05T05:41:09.644Z,29.07
2018-02-05T05:43:39.858Z,29.87
2018-02-05T05:46:10.488Z,28.27
2018-02-05T05:48:42.813Z,32.00
2018-02-05T05:51:10.867Z,27.57
2018-02-05T05:53:39.844Z,23.60
2018-02-05T05:56:07.901Z,21.97
2018-02-05T05:58:41.882Z,23.50
2018-02-05T06:01:11.802Z,19.10
2018-02-05T06:03:42.141Z,21.33
2018-02-05T06:06:11.395Z,22.47
2018-02-05T06:08:42.599Z,20.90
2018-02-05T06:11:12.014Z,21.47
2018-02-05T06:13:40.107Z,22.43
2018-02-05T06:16:10.840Z,22.07
2018-02-05T06:18:38.895Z,19.70
2018-02-05T06:21:06.953Z,20.87
2018-02-05T06:23:39.117Z,24.40
2018-02-05T06:26:09.811Z,33.60
2018-02-05T06:28:39.287Z,28.57
2018-02-05T06:31:09.857Z,23.20
2018-02-05T06:34:08.173Z,22.83
2018-02-05T06:36:37.369Z,23.00
2018-02-05T06:39:06.476Z,21.53
2018-02-05T06:41:35.258Z,24.63
2018-02-05T06:44:04.493Z,29.43
2018-02-05T06:46:33.514Z,28.03
2018-02-05T06:49:02.310Z,25.80
2018-02-05T06:51:42.313Z,25.13
2018-02-05T06:54:23.063Z,27.20
2018-02-05T06:56:51.984Z,25.40
2018-02-05T06:59:20.206Z,22.80
2018-02-05T07:01:49.015Z,26.83
2018-02-05T07:04:17.072Z,27.10
2018-02-05T07:06:45.122Z,28.47
2018-02-05T07:09:13.171Z,28.83
2018-02-05T07:11:41.238Z,32.40
2018-02-05T07:14:10.060Z,25.27
2018-02-05T07:16:38.395Z,23.83
2018-02-05T07:19:06.899Z,27.20
2018-02-05T07:21:35.126Z,25.47
2018-02-05T07:24:04.327Z,22.70
2018-02-05T07:26:33.381Z,21.17
2018-02-05T07:29:01.781Z,25.40
2018-02-05T07:31:31.902Z,25.93
2018-02-05T07:34:01.161Z,22.60
2018-02-05T07:36:32.873Z,26.77
2018-02-05T07:39:05.483Z,25.13
2018-02-05T07:41:35.697Z,20.80
2018-02-05T07:44:04.824Z,21.20
2018-02-05T07:46:34.091Z,20.57
2018-02-05T07:49:04.401Z,21.53
2018-02-05T07:51:34.320Z,22.17
2018-02-05T07:54:04.736Z,23.07
2018-02-05T07:56:36.202Z,22.90
2018-02-05T07:59:11.907Z,21.43
2018-02-05T08:01:40.742Z,22.63
2018-02-05T08:04:12.271Z,21.20
2018-02-05T08:06:41.139Z,21.13
2018-02-05T08:09:10.155Z,25.40
2018-02-05T08:11:40.036Z,23.57
2018-02-05T08:14:10.211Z,24.10
2018-02-05T08:16:39.070Z,28.73
2018-02-05T08:19:09.028Z,26.60
2018-02-05T08:21:38.257Z,22.27
2018-02-05T08:24:08.998Z,28.63
2018-02-05T08:26:38.170Z,25.70
2018-02-05T08:29:09.210Z,22.60
2018-02-05T08:31:38.235Z,23.30
2018-02-05T08:34:07.836Z,32.40
2018-02-05T08:36:37.325Z,26.47
2018-02-05T08:39:06.267Z,23.07
2018-02-05T08:41:37.348Z,22.07
2018-02-05T08:44:07.404Z,23.50
2018-02-05T08:46:36.646Z,25.07
2018-02-05T08:49:05.658Z,22.07
2018-02-05T08:51:34.373Z,22.37
2018-02-05T08:54:02.475Z,22.97
2018-02-05T08:56:31.467Z,22.17
2018-02-05T08:59:01.288Z,21.90
2018-02-05T09:01:31.094Z,20.17
2018-02-05T09:04:00.945Z,20.90
2018-02-05T09:06:30.825Z,19.00
2018-02-05T09:09:00.290Z,21.80
2018-02-05T09:11:30.051Z,20.97
2018-02-05T09:14:00.699Z,20.20
2018-02-05T09:16:30.826Z,20.13
2018-02-05T09:19:00.487Z,20.67
2018-02-05T09:21:31.633Z,22.60
2018-02-05T09:24:01.012Z,21.97
2018-02-05T09:26:31.682Z,20.40
2018-02-05T09:29:02.621Z,21.17
2018-02-05T09:31:32.229Z,21.67
2018-02-05T09:34:01.452Z,21.83
2018-02-05T09:36:31.113Z,20.10
2018-02-05T09:39:02.769Z,20.93
2018-02-05T09:41:34.249Z,22.00
2018-02-05T09:44:05.952Z,21.63
2018-02-05T09:46:35.346Z,21.70
2018-02-05T09:49:06.867Z,21.43
2018-02-05T09:51:36.395Z,22.00
2018-02-05T09:54:07.612Z,21.63
2018-02-05T09:56:38.826Z,21.43
2018-02-05T09:59:08.821Z,19.60
2018-02-05T10:01:37.930Z,19.80
2018-02-05T10:04:06.707Z,19.37
2018-02-05T10:06:37.970Z,19.93
2018-02-05T10:09:06.328Z,18.23
2018-02-05T10:11:35.287Z,19.97
2018-02-05T10:14:04.701Z,18.97
2018-02-05T10:16:35.710Z,18.17
2018-02-05T10:19:06.160Z,18.07
2018-02-05T10:21:36.404Z,20.17
2018-02-05T10:24:05.436Z,18.13
2018-02-05T10:26:35.476Z,17.50
2018-02-05T10:29:04.571Z,19.20
2018-02-05T10:31:33.483Z,18.77
2018-02-05T10:34:03.950Z,19.70
2018-02-05T10:36:33.131Z,17.00
2018-02-05T10:39:05.143Z,18.43
2018-02-05T10:41:34.479Z,18.20
2018-02-05T10:44:04.336Z,18.13
2018-02-05T10:46:33.716Z,16.70
2018-02-05T10:49:03.644Z,17.37
2018-02-05T10:51:34.335Z,18.30
2018-02-05T10:54:03.243Z,16.57
2018-02-05T10:56:32.128Z,18.23
2018-02-05T10:59:00.772Z,18.93
2018-02-05T11:01:36.060Z,16.10
2018-02-05T11:04:06.202Z,15.80
2018-02-05T11:06:35.271Z,15.77
2018-02-05T11:09:04.730Z,14.93
2018-02-05T11:11:36.060Z,15.23
2018-02-05T11:14:08.003Z,15.43
2018-02-05T11:16:37.608Z,14.90
2018-02-05T11:19:06.581Z,13.97
2018-02-05T11:21:37.518Z,14.77
2018-02-05T11:24:06.492Z,14.33
2018-02-05T11:26:37.409Z,13.87
2018-02-05T11:29:08.029Z,13.80
2018-02-05T11:31:36.442Z,13.27
2018-02-05T11:34:06.054Z,13.60
2018-02-05T11:36:35.809Z,13.27
2018-02-05T11:39:06.299Z,12.90
2018-02-05T11:41:36.321Z,13.20
2018-02-05T11:44:05.510Z,14.23
2018-02-05T11:46:36.258Z,12.80
2018-02-05T11:49:05.092Z,13.83
2018-02-05T11:51:34.626Z,12.77
2018-02-05T11:54:04.373Z,14.47
2018-02-05T11:56:33.139Z,13.37
2018-02-05T11:59:03.330Z,12.87
2018-02-05T12:01:33.833Z,12.93
2018-02-05T12:04:05.286Z,13.27
2018-02-05T12:06:34.400Z,13.47
2018-02-05T12:09:03.735Z,13.13
2018-02-05T12:11:32.303Z,13.47
2018-02-05T12:14:01.605Z,12.80
2018-02-05T12:16:31.940Z,13.40
2018-02-05T12:19:01.442Z,12.50
2018-02-05T12:21:30.954Z,12.50
2018-02-05T12:24:01.056Z,12.47
2018-02-05T12:26:31.970Z,12.20
2018-02-05T12:29:01.497Z,12.83
2018-02-05T12:31:31.588Z,12.17
2018-02-05T12:34:01.062Z,12.23
2018-02-05T12:36:30.068Z,11.67
2018-02-05T12:38:59.719Z,12.27
2018-02-05T12:41:31.593Z,11.67
2018-02-05T12:44:00.754Z,11.93
2018-02-05T12:46:31.490Z,11.77
2018-02-05T12:49:01.447Z,10.33
2018-02-05T12:51:31.021Z,11.37
2018-02-05T12:54:00.928Z,10.60
2018-02-05T12:56:31.024Z,10.27
2018-02-05T12:59:01.293Z,11.10
2018-02-05T13:01:34.526Z,10.67
2018-02-05T13:07:11.145Z,9.63
2018-02-05T13:09:39.966Z,10.83
2018-02-05T13:12:08.242Z,9.43
2018-02-05T13:14:37.164Z,10.57
2018-02-05T13:17:06.550Z,12.20
2018-02-05T13:19:35.687Z,10.67
2018-02-05T13:22:04.806Z,10.43
2018-02-05T13:24:34.494Z,10.70
2018-02-05T13:27:03.835Z,11.70
2018-02-05T13:29:33.037Z,10.27
2018-02-05T13:32:02.150Z,10.57
2018-02-05T13:34:31.281Z,10.50
2018-02-05T13:37:00.801Z,10.00
2018-02-05T13:39:31.662Z,9.77
2018-02-05T13:42:01.019Z,10.47
2018-02-05T13:44:30.650Z,11.37
2018-02-05T13:47:00.904Z,9.87
2018-02-05T13:49:33.373Z,10.50
2018-02-05T13:52:02.463Z,10.53
2018-02-05T13:54:31.836Z,9.00
2018-02-05T13:57:02.332Z,10.37
2018-02-05T13:59:33.048Z,9.83
2018-02-05T14:02:03.419Z,10.03
2018-02-05T14:04:33.094Z,9.87
2018-02-05T14:07:03.472Z,9.43
2018-02-05T14:09:33.370Z,9.90
2018-02-05T14:12:03.182Z,11.03
2018-02-05T14:14:33.093Z,9.70
2018-02-05T14:17:02.040Z,10.67
2018-02-05T14:19:32.412Z,10.30
2018-02-05T14:22:01.549Z,9.80
2018-02-05T14:24:31.595Z,10.97
2018-02-05T14:27:05.726Z,10.87
2018-02-05T14:29:34.944Z,10.90
2018-02-05T14:32:04.014Z,11.27
2018-02-05T14:34:33.534Z,12.37
2018-02-05T14:37:04.032Z,11.07
2018-02-05T14:39:33.680Z,11.33
2018-02-05T14:42:03.246Z,11.67
2018-02-05T14:44:33.608Z,12.10
2018-02-05T14:47:06.007Z,12.20
2018-02-05T14:49:35.956Z,12.33
2018-02-05T14:52:06.131Z,10.60
2018-02-05T14:54:36.762Z,12.30
2018-02-05T14:57:06.555Z,11.20
2018-02-05T14:59:36.002Z,11.73
2018-02-05T15:02:06.840Z,24.43
2018-02-05T15:04:38.439Z,12.00
2018-02-05T15:07:08.110Z,20.03
2018-02-05T15:09:38.647Z,14.47
2018-02-05T15:12:10.633Z,17.97
2018-02-05T15:14:39.562Z,14.00
2018-02-05T15:17:07.612Z,12.53
2018-02-05T15:19:36.035Z,12.53
2018-02-05T15:22:07.506Z,12.97
2018-02-05T15:24:37.062Z,12.37
2018-02-05T15:27:08.475Z,13.70
2018-02-05T15:29:36.983Z,14.93
2018-02-05T15:32:05.738Z,12.70
2018-02-05T15:34:35.094Z,14.20
2018-02-05T15:37:05.683Z,12.27
2018-02-05T15:39:35.719Z,13.73
2018-02-05T15:42:04.336Z,13.60
2018-02-05T15:44:34.041Z,13.23
2018-02-05T15:47:03.307Z,13.10
2018-02-05T15:49:32.502Z,14.57
2018-02-05T15:52:02.474Z,12.60
2018-02-05T15:54:31.297Z,12.67
2018-02-05T15:57:00.697Z,11.47
2018-02-05T15:59:30.140Z,13.50
2018-02-05T16:01:59.617Z,13.63
2018-02-05T16:04:30.828Z,13.03
2018-02-05T16:07:00.558Z,12.47
2018-02-05T16:09:29.439Z,12.47
2018-02-05T16:11:59.652Z,13.10
2018-02-05T16:14:28.961Z,13.63
2018-02-05T16:17:00.937Z,12.97
2018-02-05T16:19:30.943Z,13.53
2018-02-05T16:21:59.479Z,11.63
2018-02-05T16:24:29.225Z,14.00
2018-02-05T16:27:03.257Z,13.70
2018-02-05T16:29:34.075Z,13.63
2018-02-05T16:32:04.590Z,13.70
2018-02-05T16:34:33.962Z,13.03
2018-02-05T16:37:02.676Z,15.17
2018-02-05T16:39:32.966Z,13.23
2018-02-05T16:42:01.184Z,16.63
2018-02-05T16:44:32.933Z,14.33
2018-02-05T16:47:02.346Z,14.30
2018-02-05T16:49:33.015Z,21.67
2018-02-05T16:52:02.031Z,14.80
2018-02-05T16:54:32.404Z,16.93
2018-02-05T16:57:03.795Z,15.50
2018-02-05T16:59:33.608Z,17.77
2018-02-05T17:02:03.288Z,16.93
2018-02-05T17:04:32.991Z,16.47
2018-02-05T17:07:02.641Z,17.00
2018-02-05T17:09:32.302Z,16.27
2018-02-05T17:12:02.066Z,16.03
2018-02-05T17:14:30.986Z,17.73
2018-02-05T17:17:00.382Z,15.17
2018-02-05T17:19:29.777Z,14.27
2018-02-05T17:21:58.729Z,21.17
2018-02-05T17:24:28.432Z,17.27
2018-02-05T17:26:58.030Z,19.73
2018-02-05T17:29:27.538Z,18.23
2018-02-05T17:31:57.978Z,28.23
2018-02-05T17:34:26.745Z,32.67
2018-02-05T17:36:56.171Z,21.80
2018-02-05T17:39:24.660Z,16.23
2018-02-05T17:41:52.867Z,12.43
2018-02-05T17:44:21.106Z,16.60
2018-02-05T17:46:49.253Z,23.13
2018-02-05T17:49:17.338Z,22.43
2018-02-05T17:51:45.386Z,18.83
2018-02-05T17:54:13.438Z,19.57
2018-02-05T17:56:41.504Z,21.33
2018-02-05T17:59:10.330Z,16.90
2018-02-05T18:01:38.433Z,14.30
2018-02-05T18:04:06.503Z,14.03
2018-02-05T18:06:34.709Z,13.63
2018-02-05T18:09:02.824Z,13.43
2018-02-05T18:11:31.121Z,23.90
2018-02-05T18:13:59.345Z,19.33
2018-02-05T18:16:28.260Z,16.97
2018-02-05T18:18:57.346Z,17.00
2018-02-05T18:21:26.014Z,16.13
2018-02-05T18:23:55.258Z,18.23
2018-02-05T18:26:24.572Z,16.07
2018-02-05T18:28:53.116Z,28.47
2018-02-05T18:31:21.157Z,27.57
2018-02-05T18:33:49.457Z,36.07
2018-02-05T18:36:17.546Z,17.60
2018-02-05T18:38:46.426Z,16.70
2018-02-05T18:41:14.674Z,18.27
2018-02-05T18:43:42.898Z,15.27
2018-02-05T18:46:10.953Z,16.50
2018-02-05T18:48:39.622Z,14.50
2018-02-05T18:51:07.670Z,18.27
2018-02-05T18:53:35.749Z,18.93
2018-02-05T18:56:03.811Z,17.60
2018-02-05T18:58:32.629Z,17.97
2018-02-05T19:01:00.740Z,16.97
2018-02-05T19:03:28.799Z,19.60
2018-02-05T19:05:56.852Z,18.70
2018-02-05T19:08:24.912Z,18.27
2018-02-05T19:10:52.972Z,21.57
2018-02-05T19:13:21.040Z,23.10
2018-02-05T19:15:49.077Z,22.80
2018-02-05T19:18:17.315Z,20.63
2018-02-05T19:20:46.382Z,21.13
2018-02-05T19:23:14.552Z,20.47
2018-02-05T19:25:42.590Z,20.23
2018-02-05T19:28:10.738Z,20.10
2018-02-05T19:30:38.786Z,19.20
2018-02-05T19:33:06.881Z,19.60
2018-02-05T19:35:35.010Z,29.30
2018-02-05T19:38:03.043Z,23.13
2018-02-05T19:40:31.154Z,20.37
2018-02-05T19:42:59.289Z,18.70
2018-02-05T19:45:27.565Z,20.20
2018-02-05T19:47:56.408Z,18.10
2018-02-05T19:50:24.460Z,19.80
2018-02-05T19:52:52.524Z,20.67
2018-02-05T19:55:20.600Z,26.10
2018-02-05T19:57:49.424Z,40.53
2018-02-05T20:00:17.488Z,28.00
2018-02-05T20:02:45.537Z,34.57
2018-02-05T20:05:14.602Z,20.90
2018-02-05T20:07:42.670Z,20.77
2018-02-05T20:10:11.501Z,20.70
2018-02-05T20:12:40.182Z,19.83
2018-02-05T20:15:08.241Z,19.63
2018-02-05T20:17:36.304Z,19.73
2018-02-05T20:20:05.149Z,20.70
2018-02-05T20:22:33.351Z,26.13
2018-02-05T20:25:01.407Z,20.47
2018-02-05T20:27:29.455Z,22.20
2018-02-05T20:29:57.536Z,22.23
2018-02-05T20:32:25.582Z,19.30
2018-02-05T20:34:53.680Z,20.83
2018-02-05T20:37:21.744Z,18.87
2018-02-05T20:39:49.794Z,24.50
2018-02-05T20:42:17.864Z,21.20
2018-02-05T20:44:46.705Z,21.43
2018-02-05T20:47:14.763Z,22.87
2018-02-05T20:49:42.804Z,23.57
2018-02-05T20:52:10.862Z,22.20
2018-02-05T20:54:39.446Z,21.73
2018-02-05T20:57:07.517Z,22.80
2018-02-05T20:59:35.564Z,20.40
2018-02-05T21:02:03.681Z,20.80
2018-02-05T21:04:33.734Z,21.73
2018-02-05T21:07:01.790Z,21.53
2018-02-05T21:09:30.616Z,21.07
2018-02-05T21:11:58.672Z,20.50
2018-02-05T21:14:26.798Z,23.50
2018-02-05T21:16:54.902Z,22.27
2018-02-05T21:19:23.057Z,23.70
2018-02-05T21:21:51.066Z,24.37
2018-02-05T21:24:19.222Z,22.73
2018-02-05T21:26:48.320Z,21.80
2018-02-05T21:29:17.168Z,23.80
2018-02-05T21:31:45.202Z,24.47
2018-02-05T21:34:13.277Z,23.27
2018-02-05T21:36:42.172Z,23.67
2018-02-05T21:39:10.236Z,26.90
2018-02-05T21:41:39.899Z,26.60
2018-02-05T21:44:08.554Z,23.97
2018-02-05T21:46:36.659Z,19.63
2018-02-05T21:49:04.797Z,21.97
2018-02-05T21:51:33.483Z,24.30
2018-02-05T21:54:01.592Z,23.33
2018-02-05T21:56:32.602Z,23.43
2018-02-05T21:59:00.767Z,24.93
2018-02-05T22:01:30.409Z,26.03
2018-02-05T22:03:58.550Z,25.20
2018-02-05T22:06:26.654Z,26.20
2018-02-05T22:08:55.656Z,33.70
2018-02-05T22:11:23.775Z,31.53
2018-02-05T22:13:52.182Z,29.33
2018-02-05T22:16:20.278Z,24.60
2018-02-05T22:18:48.347Z,28.17
2018-02-05T22:21:16.623Z,24.33
2018-02-05T22:23:44.712Z,23.30
2018-02-05T22:26:13.577Z,23.40
2018-02-05T22:28:42.603Z,22.87
2018-02-05T22:31:10.667Z,27.47
2018-02-05T22:33:39.597Z,26.37
2018-02-05T22:36:11.339Z,26.80
2018-02-05T22:38:40.151Z,24.73
2018-02-05T22:41:08.355Z,33.30
2018-02-05T22:43:36.503Z,46.50
2018-02-05T22:46:05.329Z,25.83
2018-02-05T22:48:39.554Z,23.37
2018-02-05T22:51:07.687Z,21.73
2018-02-05T22:53:36.013Z,28.03
2018-02-05T22:56:04.187Z,30.97
2018-02-05T22:58:33.095Z,25.43
2018-02-05T23:01:03.058Z,23.57
2018-02-05T23:03:31.553Z,25.03
2018-02-05T23:06:00.029Z,22.37
2018-02-05T23:08:29.643Z,29.10
2018-02-05T23:10:59.202Z,23.70
2018-02-05T23:13:28.997Z,23.57
2018-02-05T23:15:58.745Z,24.90
2018-02-05T23:18:28.352Z,25.00
2018-02-05T23:20:57.577Z,26.23
2018-02-05T23:23:27.466Z,24.97
2018-02-05T23:25:56.026Z,23.73
2018-02-05T23:28:25.198Z,24.30
2018-02-05T23:31:11.987Z,22.57
2018-02-05T23:33:40.452Z,23.43
2018-02-05T23:36:09.456Z,24.53
2018-02-05T23:38:38.348Z,23.20
2018-02-05T23:41:07.877Z,24.50
2018-02-05T23:43:42.879Z,24.40
2018-02-05T23:46:12.579Z,24.37
2018-02-05T23:48:41.445Z,23.87
2018-02-05T23:51:12.041Z,23.70
2018-02-05T23:53:41.752Z,26.17
2018-02-05T23:56:14.476Z,25.10
2018-02-05T23:58:42.756Z,23.60
